Time;durP1;ratioP1;P1;durP2;ratioP2;P2;SDS_P1;SDS_P2;PMS_P1;PMS_P2;Temp;Humidity;BMP_temperature;BMP_pressure;BME280_temperature;BME280_humidity;BME280_pressure;Samples;Min_cycle;Max_cycle;Signal;HPM_P1;HPM_P2
2020/12/28 00:01:35;;;;;;;0.00;0.00;;;;;;;;;;5015532;28;20194;-66
2020/12/28 00:04:03;;;;;;;0.30;0.13;;;;;;;;;;5017862;28;20190;-65
2020/12/28 00:06:30;;;;;;;0.00;0.00;;;;;;;;;;5022635;28;20193;-63
2020/12/28 00:08:57;;;;;;;0.00;0.00;;;;;;;;;;5019488;28;20306;-64
2020/12/28 00:11:24;;;;;;;0.00;0.00;;;;;;;;;;5017554;28;20190;-64
2020/12/28 00:13:50;;;;;;;0.00;0.00;;;;;;;;;;5010135;28;20193;-63
2020/12/28 00:16:17;;;;;;;0.00;0.00;;;;;;;;;;5010138;28;21042;-64
2020/12/28 00:18:44;;;;;;;0.00;0.00;;;;;;;;;;5012058;28;20307;-64
2020/12/28 00:21:11;;;;;;;0.00;0.00;;;;;;;;;;5011785;28;20751;-64
2020/12/28 00:23:37;;;;;;;0.00;0.00;;;;;;;;;;5011844;28;20229;-65
2020/12/28 00:26:04;;;;;;;0.00;0.00;;;;;;;;;;5009224;28;20723;-64
2020/12/28 00:28:31;;;;;;;0.00;0.00;;;;;;;;;;5021975;28;20225;-63
2020/12/28 00:30:57;;;;;;;1.90;1.60;;;;;;;;;;5017601;28;20182;-64
2020/12/28 00:33:25;;;;;;;0.00;0.00;;;;;;;;;;5033477;28;20186;-65
2020/12/28 00:35:55;;;;;;;0.00;0.00;;;;;;;;;;5020508;28;20226;-64
2020/12/28 14:09:50;;;;;;;0.00;0.00;;;;;;;;;;5115951;27;20593;-62
2020/12/28 14:12:17;;;;;;;0.00;0.00;;;;;;;;;;5113891;27;20280;-62
2020/12/28 14:14:44;;;;;;;0.00;0.00;;;;;;;;;;5110926;27;20181;-63
2020/12/28 14:17:10;;;;;;;0.00;0.00;;;;;;;;;;5110738;27;20287;-62
2020/12/28 14:19:37;;;;;;;0.00;0.00;;;;;;;;;;5099359;27;20240;-63
2020/12/28 14:22:03;;;;;;;0.00;0.00;;;;;;;;;;5105885;28;20177;-62
2020/12/28 14:24:31;;;;;;;0.13;0.13;;;;;;;;;;5109502;27;20738;-62
2020/12/28 14:26:59;;;;;;;0.00;0.00;;;;;;;;;;5109403;27;20189;-61
2020/12/28 14:29:25;;;;;;;0.00;0.00;;;;;;;;;;5113334;27;21012;-62
2020/12/28 14:31:52;;;;;;;0.20;0.20;;;;;;;;;;5109625;27;20201;-62
2020/12/28 14:34:18;;;;;;;0.00;0.00;;;;;;;;;;5125030;27;20368;-63
2020/12/28 14:36:48;;;;;;;0.20;0.20;;;;;;;;;;5119805;27;20193;-64
2020/12/28 14:39:15;;;;;;;0.00;0.00;;;;;;;;;;5113681;27;20665;-63
2020/12/28 14:41:42;;;;;;;0.00;0.00;;;;;;;;;;5118915;27;20185;-63
2020/12/28 14:44:08;;;;;;;0.00;0.00;;;;;;;;;;5116504;28;20196;-63
2020/12/28 14:46:35;;;;;;;0.00;0.00;;;;;;;;;;5107152;27;20264;-63
2020/12/28 14:49:02;;;;;;;0.00;0.00;;;;;;;;;;5114844;27;20578;-63
2020/12/28 14:51:29;;;;;;;0.00;0.00;;;;;;;;;;5114235;27;20758;-63
2020/12/28 14:53:56;;;;;;;0.00;0.00;;;;;;;;;;5100548;27;20267;-63
2020/12/28 14:56:23;;;;;;;0.30;0.30;;;;;;;;;;5096853;28;20186;-63
2020/12/28 14:58:49;;;;;;;0.03;0.03;;;;;;;;;;5097936;28;22136;-63
2020/12/28 15:01:19;;;;;;;0.00;0.00;;;;;;;;;;5109255;27;20899;-63
2020/12/28 15:03:46;;;;;;;0.00;0.00;;;;;;;;;;5116046;27;20177;-64
2020/12/28 15:06:13;;;;;;;4.40;0.20;;;;;;;;;;5110881;27;20208;-63
2020/12/28 15:08:40;;;;;;;0.00;0.00;;;;;;;;;;5113286;27;20251;-64
2020/12/28 15:11:07;;;;;;;0.00;0.00;;;;;;;;;;5110051;28;20209;-63
2020/12/28 15:13:37;;;;;;;0.00;0.00;;;;;;;;;;5107200;27;20177;-64
2020/12/28 15:16:07;;;;;;;0.00;0.00;;;;;;;;;;5103997;27;20192;-64
2020/12/28 15:18:34;;;;;;;0.00;0.00;;;;;;;;;;5114003;27;20182;-64
2020/12/28 15:21:00;;;;;;;0.00;0.00;;;;;;;;;;5105096;27;21021;-64
2020/12/28 15:23:28;;;;;;;0.00;0.00;;;;;;;;;;5086333;28;20636;-63
2020/12/28 15:25:55;;;;;;;0.00;0.00;;;;;;;;;;5088298;28;20211;-63
2020/12/28 15:28:21;;;;;;;0.00;0.00;;;;;;;;;;5088058;28;20284;-64
2020/12/28 15:30:48;;;;;;;0.00;0.00;;;;;;;;;;5089586;28;21141;-62
2020/12/28 15:33:17;;;;;;;0.70;0.70;;;;;;;;;;5091066;27;20256;-63
2020/12/28 15:35:44;;;;;;;0.00;0.00;;;;;;;;;;5094538;27;20182;-64
2020/12/28 15:38:10;;;;;;;0.00;0.00;;;;;;;;;;5092989;27;20252;-61
2020/12/28 15:40:37;;;;;;;0.03;0.03;;;;;;;;;;5094994;27;20189;-61
2020/12/28 15:43:03;;;;;;;0.30;0.10;;;;;;;;;;5099805;28;20268;-62
2020/12/28 15:45:31;;;;;;;0.10;0.10;;;;;;;;;;5097893;28;20660;-61
2020/12/28 15:47:58;;;;;;;0.10;0.10;;;;;;;;;;5090382;28;20603;-62
2020/12/28 15:50:24;;;;;;;0.33;0.33;;;;;;;;;;5101183;27;20214;-63
2020/12/28 15:52:52;;;;;;;0.00;0.00;;;;;;;;;;5091016;27;20173;-63
2020/12/28 15:55:19;;;;;;;0.93;0.20;;;;;;;;;;5107566;27;20297;-63
2020/12/28 15:57:46;;;;;;;0.00;0.00;;;;;;;;;;5106509;27;20186;-63
2020/12/28 16:00:12;;;;;;;0.10;0.10;;;;;;;;;;5098891;27;20233;-63
2020/12/28 16:02:39;;;;;;;0.00;0.00;;;;;;;;;;5099698;27;20181;-63
2020/12/28 16:05:05;;;;;;;0.30;0.30;;;;;;;;;;5100083;27;20173;-63
2020/12/28 16:07:32;;;;;;;0.03;0.03;;;;;;;;;;5099933;28;20181;-63
2020/12/28 16:09:58;;;;;;;0.00;0.00;;;;;;;;;;5096788;27;21036;-63
2020/12/28 16:12:25;;;;;;;0.20;0.20;;;;;;;;;;5100978;27;20170;-62
2020/12/28 16:14:52;;;;;;;0.00;0.00;;;;;;;;;;5095071;27;20190;-62
2020/12/28 16:17:18;;;;;;;0.83;0.77;;;;;;;;;;5095165;27;20189;-63
2020/12/28 16:19:46;;;;;;;0.10;0.10;;;;;;;;;;5096044;27;20282;-62
2020/12/28 16:22:13;;;;;;;0.10;0.10;;;;;;;;;;5098077;27;20179;-62
2020/12/28 16:24:40;;;;;;;2.30;1.27;;;;;;;;;;5097812;28;20227;-62
2020/12/28 16:27:06;;;;;;;0.33;0.27;;;;;;;;;;5095279;28;20201;-62
2020/12/28 16:29:35;;;;;;;1.10;0.77;;;;;;;;;;5100187;28;20223;-62
2020/12/28 16:32:02;;;;;;;0.10;0.10;;;;;;;;;;5101841;27;20536;-62
2020/12/28 16:34:28;;;;;;;0.10;0.10;;;;;;;;;;5093937;27;20250;-63
2020/12/28 16:36:59;;;;;;;0.10;0.10;;;;;;;;;;5099865;27;20190;-63
2020/12/28 16:39:26;;;;;;;2.30;2.20;;;;;;;;;;5097681;27;20185;-63
2020/12/28 16:41:54;;;;;;;0.10;0.10;;;;;;;;;;5098191;28;20178;-64
2020/12/28 16:44:20;;;;;;;0.10;0.10;;;;;;;;;;5103236;27;20271;-62
2020/12/28 16:46:58;;;;;;;0.57;0.20;;;;;;;;;;5098137;27;20273;-62
2020/12/28 16:49:25;;;;;;;0.00;0.00;;;;;;;;;;5087430;28;20328;-63
2020/12/28 16:51:58;;;;;;;0.00;0.00;;;;;;;;;;5087741;27;21700;-63
2020/12/28 16:54:31;;;;;;;0.00;0.00;;;;;;;;;;5097431;27;20195;-62
2020/12/28 16:57:01;;;;;;;0.07;0.07;;;;;;;;;;5091378;27;20215;-63
2020/12/28 16:59:27;;;;;;;0.10;0.10;;;;;;;;;;5099118;28;20193;-62
2020/12/28 17:01:55;;;;;;;0.10;0.10;;;;;;;;;;5091488;27;20559;-63
2020/12/28 17:04:22;;;;;;;0.10;0.10;;;;;;;;;;5092841;27;20193;-62
2020/12/28 17:06:49;;;;;;;0.10;0.10;;;;;;;;;;5095377;28;20349;-63
2020/12/28 17:09:16;;;;;;;0.00;0.00;;;;;;;;;;5094896;27;20824;-63
2020/12/28 17:11:43;;;;;;;0.57;0.57;;;;;;;;;;5093215;28;20212;-62
2020/12/28 17:14:10;;;;;;;0.00;0.00;;;;;;;;;;5094927;28;20183;-63
2020/12/28 17:16:36;;;;;;;0.10;0.10;;;;;;;;;;5097574;27;20192;-63
2020/12/28 17:19:03;;;;;;;0.00;0.00;;;;;;;;;;5097484;28;20265;-64
2020/12/28 17:21:30;;;;;;;0.03;0.03;;;;;;;;;;5091076;28;20184;-62
2020/12/28 17:23:57;;;;;;;0.00;0.00;;;;;;;;;;5095091;28;20205;-61
2020/12/28 17:26:23;;;;;;;0.33;0.10;;;;;;;;;;5089581;28;20186;-62
2020/12/28 17:28:50;;;;;;;0.00;0.00;;;;;;;;;;5099175;28;20222;-62
2020/12/28 17:31:17;;;;;;;0.00;0.00;;;;;;;;;;5096566;27;20177;-61
2020/12/28 17:33:44;;;;;;;3.07;2.63;;;;;;;;;;5098602;28;20242;-62
2020/12/28 17:36:11;;;;;;;0.00;0.00;;;;;;;;;;5094204;27;20788;-63
2020/12/28 17:38:39;;;;;;;0.33;0.33;;;;;;;;;;5097988;28;20196;-63
2020/12/28 17:41:06;;;;;;;0.47;0.20;;;;;;;;;;5103868;27;20560;-62
2020/12/28 17:43:33;;;;;;;0.00;0.00;;;;;;;;;;5097218;27;20177;-61
2020/12/28 17:46:00;;;;;;;0.00;0.00;;;;;;;;;;5098618;28;20490;-62
2020/12/28 17:48:26;;;;;;;2.83;1.50;;;;;;;;;;5097024;27;20227;-61
2020/12/28 17:50:53;;;;;;;0.20;0.20;;;;;;;;;;5096568;28;20177;-61
2020/12/28 17:53:21;;;;;;;0.00;0.00;;;;;;;;;;5097165;28;20189;-61
2020/12/28 17:55:48;;;;;;;0.00;0.00;;;;;;;;;;5094744;28;20189;-62
2020/12/28 17:58:15;;;;;;;0.00;0.00;;;;;;;;;;5091320;27;20759;-61
2020/12/28 18:00:42;;;;;;;0.10;0.10;;;;;;;;;;5093560;28;20185;-62
2020/12/28 18:03:08;;;;;;;0.00;0.00;;;;;;;;;;5090066;28;20182;-62
2020/12/28 18:05:35;;;;;;;0.10;0.10;;;;;;;;;;5096376;27;20188;-62
2020/12/28 18:08:02;;;;;;;0.00;0.00;;;;;;;;;;5095174;28;20223;-62
2020/12/28 18:10:29;;;;;;;2.67;1.50;;;;;;;;;;5096189;28;20301;-62
2020/12/28 18:12:56;;;;;;;0.00;0.00;;;;;;;;;;5092387;28;20187;-61
2020/12/28 18:15:23;;;;;;;0.00;0.00;;;;;;;;;;5094483;28;20190;-61
2020/12/28 18:17:50;;;;;;;0.10;0.10;;;;;;;;;;5101070;28;20200;-61
2020/12/28 18:20:16;;;;;;;0.00;0.00;;;;;;;;;;5097007;28;20213;-62
2020/12/28 18:22:43;;;;;;;0.10;0.10;;;;;;;;;;5099915;28;20178;-61
2020/12/28 18:25:10;;;;;;;0.00;0.00;;;;;;;;;;5099794;28;20189;-62
2020/12/28 18:27:36;;;;;;;0.10;0.10;;;;;;;;;;5101075;28;20243;-62
2020/12/28 18:30:04;;;;;;;0.00;0.00;;;;;;;;;;5095613;28;20182;-64
2020/12/28 18:32:30;;;;;;;0.03;0.03;;;;;;;;;;5097831;28;20181;-63
2020/12/28 18:34:57;;;;;;;0.10;0.10;;;;;;;;;;5096546;28;20639;-63
2020/12/28 18:37:23;;;;;;;0.00;0.00;;;;;;;;;;5093684;28;20268;-62
2020/12/28 18:39:50;;;;;;;0.10;0.10;;;;;;;;;;5098321;28;20568;-62
2020/12/28 18:42:17;;;;;;;0.10;0.10;;;;;;;;;;5088459;28;20186;-62
2020/12/28 18:44:44;;;;;;;0.00;0.00;;;;;;;;;;5095874;28;20998;-62
2020/12/28 18:47:11;;;;;;;0.10;0.10;;;;;;;;;;5098030;28;20196;-63
2020/12/28 18:49:37;;;;;;;2.23;2.13;;;;;;;;;;5095504;28;20230;-62
2020/12/28 18:52:04;;;;;;;0.00;0.00;;;;;;;;;;5099941;27;20194;-62
2020/12/28 18:54:30;;;;;;;0.00;0.00;;;;;;;;;;5090215;28;20186;-62
2020/12/28 18:56:59;;;;;;;1.73;1.07;;;;;;;;;;5097216;27;20189;-62
2020/12/28 18:59:34;;;;;;;3.37;0.60;;;;;;;;;;5106594;27;20704;-62
2020/12/28 19:02:02;;;;;;;0.10;0.10;;;;;;;;;;5104022;27;20185;-62
2020/12/28 19:04:31;;;;;;;0.60;0.60;;;;;;;;;;5101793;27;20189;-60
2020/12/28 19:06:59;;;;;;;1.07;1.00;;;;;;;;;;5104460;27;20594;-60
2020/12/28 19:09:27;;;;;;;0.20;0.20;;;;;;;;;;5106431;27;20233;-61
2020/12/28 19:11:54;;;;;;;0.30;0.30;;;;;;;;;;5102222;28;20295;-60
2020/12/28 19:14:26;;;;;;;0.10;0.10;;;;;;;;;;5103759;27;20237;-61
2020/12/28 19:16:53;;;;;;;0.20;0.20;;;;;;;;;;5099337;27;20395;-61
2020/12/28 19:19:20;;;;;;;0.10;0.10;;;;;;;;;;5092375;27;20180;-61
2020/12/28 19:21:47;;;;;;;0.80;0.70;;;;;;;;;;5095002;27;20551;-61
2020/12/28 19:24:14;;;;;;;0.20;0.20;;;;;;;;;;5096025;27;20181;-61
2020/12/28 19:26:47;;;;;;;0.27;0.10;;;;;;;;;;5097736;28;20230;-60
2020/12/28 19:29:14;;;;;;;0.00;0.00;;;;;;;;;;5088277;28;20286;-61
2020/12/28 19:31:41;;;;;;;0.00;0.00;;;;;;;;;;5090966;28;20277;-61
2020/12/28 19:34:07;;;;;;;0.00;0.00;;;;;;;;;;5090354;28;20640;-60
2020/12/28 19:36:34;;;;;;;0.00;0.00;;;;;;;;;;5093764;28;20295;-61
2020/12/28 19:39:01;;;;;;;1.07;0.30;;;;;;;;;;5093944;28;21179;-61
2020/12/28 19:41:28;;;;;;;1.57;0.33;;;;;;;;;;5103713;27;20738;-62
2020/12/28 19:43:55;;;;;;;0.00;0.00;;;;;;;;;;5097250;28;20279;-60
2020/12/28 19:46:23;;;;;;;0.07;0.07;;;;;;;;;;5098949;28;20202;-61
2020/12/28 19:48:50;;;;;;;0.00;0.00;;;;;;;;;;5094075;27;20224;-61
2020/12/28 19:51:17;;;;;;;0.00;0.00;;;;;;;;;;5094408;27;20191;-61
2020/12/28 19:53:43;;;;;;;0.00;0.00;;;;;;;;;;5097086;28;20281;-61
2020/12/28 19:56:11;;;;;;;0.00;0.00;;;;;;;;;;5101683;28;20193;-62
2020/12/28 19:58:38;;;;;;;0.00;0.00;;;;;;;;;;5099361;27;20193;-61
2020/12/28 20:01:06;;;;;;;0.00;0.00;;;;;;;;;;5100926;27;20275;-62
2020/12/28 20:03:32;;;;;;;0.00;0.00;;;;;;;;;;5100120;28;20193;-62
2020/12/28 20:05:59;;;;;;;0.00;0.00;;;;;;;;;;5101276;28;20200;-64
2020/12/28 20:08:26;;;;;;;0.00;0.00;;;;;;;;;;5101000;28;20940;-64
2020/12/28 20:10:54;;;;;;;0.00;0.00;;;;;;;;;;5104212;27;20660;-62
2020/12/28 20:13:20;;;;;;;0.00;0.00;;;;;;;;;;5101032;28;20196;-63
2020/12/28 20:15:47;;;;;;;0.00;0.00;;;;;;;;;;5102887;27;20208;-64
2020/12/28 20:18:14;;;;;;;0.00;0.00;;;;;;;;;;5095246;27;20182;-62
2020/12/28 20:20:40;;;;;;;0.00;0.00;;;;;;;;;;5093120;28;20192;-62
2020/12/28 20:23:07;;;;;;;0.00;0.00;;;;;;;;;;5101313;28;20189;-62
2020/12/28 20:25:34;;;;;;;0.00;0.00;;;;;;;;;;5101172;28;20738;-62
2020/12/28 20:28:01;;;;;;;0.00;0.00;;;;;;;;;;5100768;28;20213;-62
2020/12/28 20:30:27;;;;;;;0.00;0.00;;;;;;;;;;5101523;27;20284;-61
2020/12/28 20:32:54;;;;;;;0.00;0.00;;;;;;;;;;5101200;28;20193;-62
2020/12/28 20:35:21;;;;;;;0.00;0.00;;;;;;;;;;5100974;28;21036;-63
2020/12/28 20:37:47;;;;;;;0.00;0.00;;;;;;;;;;5101073;28;20276;-61
2020/12/28 20:40:34;;;;;;;0.00;0.00;;;;;;;;;;5100227;28;20182;-63
2020/12/28 20:43:06;;;;;;;0.10;0.10;;;;;;;;;;5099620;28;20833;-62
2020/12/28 20:45:33;;;;;;;0.00;0.00;;;;;;;;;;5100160;28;20178;-65
2020/12/28 20:48:00;;;;;;;0.00;0.00;;;;;;;;;;5100837;27;20255;-61
2020/12/28 20:50:26;;;;;;;0.00;0.00;;;;;;;;;;5102059;27;20200;-61
2020/12/28 20:52:53;;;;;;;0.00;0.00;;;;;;;;;;5100445;27;20177;-62
2020/12/28 20:55:20;;;;;;;0.00;0.00;;;;;;;;;;5099210;28;20193;-61
2020/12/28 20:57:46;;;;;;;0.00;0.00;;;;;;;;;;5100991;28;20196;-63
2020/12/28 21:00:13;;;;;;;0.00;0.00;;;;;;;;;;5099952;28;20216;-62
2020/12/28 21:02:40;;;;;;;0.00;0.00;;;;;;;;;;5099616;28;20250;-61
2020/12/28 21:05:06;;;;;;;0.00;0.00;;;;;;;;;;5098847;28;20192;-62
2020/12/28 21:07:33;;;;;;;0.00;0.00;;;;;;;;;;5102411;27;20719;-62
2020/12/28 21:09:59;;;;;;;0.00;0.00;;;;;;;;;;5103015;27;20224;-62
2020/12/28 21:12:26;;;;;;;0.00;0.00;;;;;;;;;;5099419;28;20183;-64
2020/12/28 21:14:53;;;;;;;0.00;0.00;;;;;;;;;;5094268;28;20186;-61
2020/12/28 21:17:19;;;;;;;0.00;0.00;;;;;;;;;;5097277;28;20184;-64
2020/12/28 21:19:46;;;;;;;0.00;0.00;;;;;;;;;;5100202;28;20181;-65
2020/12/28 21:22:13;;;;;;;0.00;0.00;;;;;;;;;;5100267;27;20839;-62
2020/12/28 21:24:40;;;;;;;0.00;0.00;;;;;;;;;;5098125;28;20706;-62
2020/12/28 21:27:06;;;;;;;0.00;0.00;;;;;;;;;;5098979;28;20196;-62
2020/12/28 21:29:33;;;;;;;0.00;0.00;;;;;;;;;;5098047;28;20308;-62
2020/12/28 21:32:00;;;;;;;0.20;0.20;;;;;;;;;;5101125;27;20243;-62
2020/12/28 21:34:27;;;;;;;0.00;0.00;;;;;;;;;;5093634;28;20223;-63
2020/12/28 21:36:54;;;;;;;0.00;0.00;;;;;;;;;;5097795;28;20291;-63
2020/12/28 21:39:21;;;;;;;0.00;0.00;;;;;;;;;;5094257;28;20220;-61
2020/12/28 21:41:48;;;;;;;0.00;0.00;;;;;;;;;;5090201;28;20229;-63
2020/12/28 21:44:15;;;;;;;0.00;0.00;;;;;;;;;;5093885;28;20200;-64
2020/12/28 21:46:42;;;;;;;0.00;0.00;;;;;;;;;;5093639;28;20186;-62
2020/12/28 21:49:09;;;;;;;0.00;0.00;;;;;;;;;;5098297;27;20223;-63
2020/12/28 21:51:35;;;;;;;0.00;0.00;;;;;;;;;;5096403;28;20216;-65
2020/12/28 21:54:02;;;;;;;0.20;0.17;;;;;;;;;;5095269;27;20710;-63
2020/12/28 21:56:30;;;;;;;0.00;0.00;;;;;;;;;;5100014;27;20192;-64
2020/12/28 21:58:57;;;;;;;0.00;0.00;;;;;;;;;;5107084;27;20191;-64
2020/12/28 22:01:32;;;;;;;0.00;0.00;;;;;;;;;;5089778;27;20182;-62
2020/12/28 22:04:03;;;;;;;0.00;0.00;;;;;;;;;;5097438;28;20187;-62
2020/12/28 22:06:31;;;;;;;0.00;0.00;;;;;;;;;;5097890;27;20184;-65
2020/12/28 22:08:58;;;;;;;0.00;0.00;;;;;;;;;;5099115;28;20232;-63
2020/12/28 22:11:25;;;;;;;0.00;0.00;;;;;;;;;;5096033;28;20317;-64
2020/12/28 22:13:56;;;;;;;0.40;0.40;;;;;;;;;;5091986;28;20199;-62
2020/12/28 22:16:23;;;;;;;0.00;0.00;;;;;;;;;;5092926;28;20177;-64
2020/12/28 22:18:49;;;;;;;0.00;0.00;;;;;;;;;;5091830;28;20192;-64
2020/12/28 22:21:19;;;;;;;0.00;0.00;;;;;;;;;;5097531;28;20236;-64
2020/12/28 22:23:45;;;;;;;0.00;0.00;;;;;;;;;;5104003;28;20180;-63
2020/12/28 22:26:16;;;;;;;0.00;0.00;;;;;;;;;;5091037;28;20181;-63
2020/12/28 22:28:44;;;;;;;0.00;0.00;;;;;;;;;;5098573;28;20234;-63
2020/12/28 22:31:11;;;;;;;0.00;0.00;;;;;;;;;;5097348;27;20184;-62
2020/12/28 22:33:38;;;;;;;0.00;0.00;;;;;;;;;;5103364;27;20191;-62
2020/12/28 22:36:06;;;;;;;0.00;0.00;;;;;;;;;;5098122;27;20713;-62
2020/12/28 22:38:33;;;;;;;0.00;0.00;;;;;;;;;;5102997;27;20174;-63
2020/12/28 22:41:00;;;;;;;0.00;0.00;;;;;;;;;;5097071;28;20210;-64
2020/12/28 22:43:27;;;;;;;0.00;0.00;;;;;;;;;;5098185;28;20187;-64
2020/12/28 22:45:53;;;;;;;0.00;0.00;;;;;;;;;;5106249;27;20176;-63
2020/12/28 22:48:20;;;;;;;0.00;0.00;;;;;;;;;;5098440;27;20212;-63
2020/12/28 22:50:48;;;;;;;0.00;0.00;;;;;;;;;;5101706;28;20649;-64
2020/12/28 22:53:17;;;;;;;0.00;0.00;;;;;;;;;;5101823;28;20244;-64
2020/12/28 22:55:44;;;;;;;0.00;0.00;;;;;;;;;;5098392;27;20238;-63
2020/12/28 22:58:11;;;;;;;0.00;0.00;;;;;;;;;;5104355;27;20274;-62
2020/12/28 23:00:38;;;;;;;0.00;0.00;;;;;;;;;;5102269;28;20175;-62
2020/12/28 23:03:05;;;;;;;0.00;0.00;;;;;;;;;;5097254;28;20196;-62
2020/12/28 23:05:32;;;;;;;0.00;0.00;;;;;;;;;;5095543;27;20197;-63
2020/12/28 23:07:59;;;;;;;0.00;0.00;;;;;;;;;;5103983;27;20315;-62
2020/12/28 23:10:27;;;;;;;0.00;0.00;;;;;;;;;;5102464;27;20183;-61
2020/12/28 23:12:53;;;;;;;0.00;0.00;;;;;;;;;;5101789;27;20249;-61
2020/12/28 23:15:20;;;;;;;0.00;0.00;;;;;;;;;;5102429;27;20185;-62
2020/12/28 23:17:47;;;;;;;0.00;0.00;;;;;;;;;;5102578;27;20192;-61
2020/12/28 23:20:14;;;;;;;0.00;0.00;;;;;;;;;;5096581;28;20542;-61
2020/12/28 23:22:41;;;;;;;0.00;0.00;;;;;;;;;;5097707;28;20211;-64
2020/12/28 23:25:08;;;;;;;0.00;0.00;;;;;;;;;;5099254;27;20189;-61
2020/12/28 23:27:35;;;;;;;0.00;0.00;;;;;;;;;;5106250;27;20187;-62
2020/12/28 23:30:01;;;;;;;0.00;0.00;;;;;;;;;;5103045;27;20293;-63
2020/12/28 23:32:28;;;;;;;0.00;0.00;;;;;;;;;;5097045;28;20235;-63
2020/12/28 23:34:55;;;;;;;0.00;0.00;;;;;;;;;;5097341;27;20227;-62
2020/12/28 23:37:24;;;;;;;0.33;0.33;;;;;;;;;;5103425;27;20577;-62
2020/12/28 23:39:51;;;;;;;0.00;0.00;;;;;;;;;;5097984;27;20195;-61
2020/12/28 23:42:20;;;;;;;0.00;0.00;;;;;;;;;;5096193;27;20192;-63
2020/12/28 23:44:48;;;;;;;0.40;0.40;;;;;;;;;;5101217;27;20180;-62
2020/12/28 23:47:14;;;;;;;0.50;0.50;;;;;;;;;;5098249;27;20183;-63
2020/12/28 23:49:41;;;;;;;0.00;0.00;;;;;;;;;;5095104;27;20216;-64
2020/12/28 23:52:08;;;;;;;0.00;0.00;;;;;;;;;;5098788;27;20255;-61
2020/12/28 23:54:41;;;;;;;0.17;0.17;;;;;;;;;;5095608;27;20208;-63
2020/12/28 23:57:15;;;;;;;0.00;0.00;;;;;;;;;;5102851;27;20294;-61
2020/12/28 23:59:42;;;;;;;0.00;0.00;;;;;;;;;;5103349;27;20835;-63
